createdAt,value
2022-09-06T00:00:26.437Z,67.99
2022-09-06T00:02:53.776Z,67.53
2022-09-06T00:05:21.603Z,68.27
2022-09-06T00:07:48.903Z,68.16
2022-09-06T00:10:16.153Z,68.34
2022-09-06T00:12:43.310Z,68.43
2022-09-06T00:15:10.738Z,68.74
2022-09-06T00:17:37.825Z,68.73
2022-09-06T00:20:08.670Z,68.92
2022-09-06T00:22:37.202Z,69.09
2022-09-06T00:25:06.641Z,69.18
2022-09-06T00:27:35.056Z,69.38
2022-09-06T00:30:04.568Z,69.56
2022-09-06T00:32:32.433Z,69.48
2022-09-06T00:34:59.732Z,69.90
2022-09-06T00:37:26.864Z,69.84
2022-09-06T00:39:53.993Z,70.06
2022-09-06T00:42:21.391Z,70.19
2022-09-06T00:44:49.943Z,70.55
2022-09-06T00:47:17.101Z,70.68
2022-09-06T00:49:52.004Z,70.83
2022-09-06T00:52:20.333Z,71.10
2022-09-06T00:54:50.648Z,71.10
2022-09-06T00:57:18.617Z,71.29
2022-09-06T00:59:47.525Z,71.78
2022-09-06T01:02:15.286Z,71.83
2022-09-06T01:04:45.245Z,72.10
2022-09-06T01:07:49.986Z,72.28
2022-09-06T01:11:05.723Z,72.63
2022-09-06T01:13:59.487Z,73.14
2022-09-06T01:16:40.496Z,73.03
2022-09-06T01:19:07.411Z,73.66
2022-09-06T01:21:54.741Z,73.78
2022-09-06T01:24:59.214Z,74.10
2022-09-06T01:27:47.581Z,74.33
2022-09-06T01:30:17.719Z,74.38
2022-09-06T01:33:00.810Z,74.78
2022-09-06T01:35:39.885Z,74.54
2022-09-06T01:38:08.713Z,75.46
2022-09-06T01:40:36.589Z,75.51
2022-09-06T01:43:22.488Z,75.66
2022-09-06T01:46:07.076Z,75.99
2022-09-06T01:49:09.202Z,76.04
2022-09-06T01:51:57.145Z,76.59
2022-09-06T01:54:47.679Z,76.54
2022-09-06T01:57:47.707Z,76.71
2022-09-06T02:00:20.618Z,77.00
2022-09-06T02:03:10.454Z,77.09
2022-09-06T02:06:08.029Z,77.04
2022-09-06T02:08:43.773Z,77.17
2022-09-06T02:11:14.511Z,77.43
2022-09-06T02:13:55.014Z,77.46
2022-09-06T02:16:26.100Z,77.61
2022-09-06T02:19:11.875Z,77.68
2022-09-06T02:21:43.724Z,77.98
2022-09-06T02:24:18.734Z,77.95
2022-09-06T02:26:47.683Z,78.16
2022-09-06T02:29:16.694Z,78.47
2022-09-06T02:31:49.771Z,78.34
2022-09-06T02:34:20.047Z,78.61
2022-09-06T02:36:47.774Z,78.60
2022-09-06T02:39:15.024Z,79.12
2022-09-06T02:41:44.721Z,78.59
2022-09-06T02:44:11.701Z,78.92
2022-09-06T02:46:38.858Z,78.99
2022-09-06T02:49:06.000Z,79.39
2022-09-06T02:51:38.703Z,79.32
2022-09-06T02:54:07.099Z,79.41
2022-09-06T02:56:36.530Z,79.61
2022-09-06T02:59:05.556Z,79.67
2022-09-06T03:01:33.851Z,79.89
2022-09-06T03:04:01.539Z,80.24
2022-09-06T03:06:28.597Z,80.43
2022-09-06T03:08:55.737Z,80.22
2022-09-06T03:11:22.868Z,80.21
2022-09-06T03:13:51.426Z,80.56
2022-09-06T03:16:19.722Z,80.68
2022-09-06T03:18:47.050Z,80.92
2022-09-06T03:21:14.707Z,81.10
2022-09-06T03:23:42.154Z,80.97
2022-09-06T03:26:09.195Z,81.40
2022-09-06T03:28:36.514Z,81.34
2022-09-06T03:31:03.758Z,81.25
2022-09-06T03:33:31.112Z,81.42
2022-09-06T03:36:03.124Z,81.71
2022-09-06T03:38:30.754Z,81.80
2022-09-06T03:40:58.564Z,81.62
2022-09-06T03:43:27.924Z,82.12
2022-09-06T03:46:00.026Z,82.17
2022-09-06T03:48:29.485Z,82.35
2022-09-06T03:50:58.706Z,82.65
2022-09-06T03:53:28.482Z,82.65
2022-09-06T03:55:57.838Z,82.92
2022-09-06T03:58:29.867Z,82.91
2022-09-06T04:01:06.978Z,82.87
2022-09-06T04:03:35.304Z,83.13
2022-09-06T04:06:03.094Z,83.08
2022-09-06T04:08:30.901Z,83.40
2022-09-06T04:10:59.888Z,83.25
2022-09-06T04:13:28.725Z,83.38
2022-09-06T04:15:56.501Z,83.69
2022-09-06T04:18:24.259Z,83.54
2022-09-06T04:20:53.761Z,82.88
2022-09-06T04:23:22.117Z,83.59
2022-09-06T04:25:52.221Z,83.60
2022-09-06T04:28:19.938Z,83.48
2022-09-06T04:31:04.263Z,83.70
2022-09-06T04:33:37.214Z,83.48
2022-09-06T04:36:10.621Z,83.35
2022-09-06T04:38:43.038Z,83.34
2022-09-06T04:41:13.418Z,82.88
2022-09-06T04:43:40.622Z,82.76
2022-09-06T04:46:30.256Z,82.80
2022-09-06T04:48:58.132Z,82.71
2022-09-06T04:51:25.785Z,82.63
2022-09-06T04:53:53.137Z,82.75
2022-09-06T04:56:23.288Z,82.87
2022-09-06T04:58:52.015Z,82.79
2022-09-06T05:01:20.554Z,82.91
2022-09-06T05:03:48.060Z,82.73
2022-09-06T05:06:23.951Z,82.73
2022-09-06T05:08:51.485Z,82.72
2022-09-06T05:11:19.106Z,82.48
2022-09-06T05:13:47.742Z,82.59
2022-09-06T05:16:14.955Z,82.63
2022-09-06T05:18:42.332Z,82.14
2022-09-06T05:21:09.730Z,82.88
2022-09-06T05:23:37.063Z,82.69
2022-09-06T05:26:04.322Z,82.71
2022-09-06T05:28:31.575Z,82.56
2022-09-06T05:31:13.694Z,82.44
2022-09-06T05:33:40.900Z,82.79
2022-09-06T05:36:08.352Z,82.54
2022-09-06T05:38:35.555Z,81.78
2022-09-06T05:41:02.552Z,81.88
2022-09-06T05:43:29.912Z,81.30
2022-09-06T05:45:56.999Z,81.08
2022-09-06T05:48:24.432Z,80.72
2022-09-06T05:51:13.340Z,80.39
2022-09-06T05:53:43.883Z,80.56
2022-09-06T05:56:14.684Z,80.75
2022-09-06T05:58:41.982Z,80.61
2022-09-06T06:01:16.865Z,80.84
2022-09-06T06:04:02.285Z,80.85
2022-09-06T06:06:34.879Z,80.66
2022-09-06T06:09:02.672Z,80.80
2022-09-06T06:11:31.395Z,80.80
2022-09-06T06:13:59.171Z,80.84
2022-09-06T06:16:26.295Z,81.04
2022-09-06T06:18:53.386Z,81.01
2022-09-06T06:21:27.045Z,81.04
2022-09-06T06:23:56.915Z,80.70
2022-09-06T06:26:25.319Z,80.50
2022-09-06T06:28:53.440Z,80.28
2022-09-06T06:31:22.598Z,80.08
2022-09-06T06:33:50.894Z,79.89
2022-09-06T06:36:22.013Z,79.94
2022-09-06T06:38:51.427Z,80.00
2022-09-06T06:41:21.383Z,79.69
2022-09-06T06:43:48.613Z,78.85
2022-09-06T06:46:18.625Z,78.96
2022-09-06T06:48:49.437Z,78.78
2022-09-06T06:51:20.322Z,79.56
2022-09-06T06:53:48.957Z,79.35
2022-09-06T06:56:32.576Z,79.47
2022-09-06T06:59:04.180Z,79.31
2022-09-06T07:01:34.155Z,79.11
2022-09-06T07:04:01.539Z,79.11
2022-09-06T07:09:18.378Z,79.06
2022-09-06T07:11:46.837Z,79.16
2022-09-06T07:14:14.035Z,79.02
2022-09-06T07:16:41.413Z,78.63
2022-09-06T07:19:09.288Z,78.22
2022-09-06T07:24:09.606Z,78.32
2022-09-06T07:26:39.497Z,77.71
2022-09-06T07:29:08.253Z,77.67
2022-09-06T07:34:25.970Z,77.21
2022-09-06T07:36:56.963Z,76.87
2022-09-06T07:39:24.137Z,77.13
2022-09-06T07:41:51.598Z,77.05
2022-09-06T07:44:18.698Z,77.81
2022-09-06T07:46:45.955Z,77.68
2022-09-06T07:49:13.130Z,78.38
2022-09-06T07:51:40.171Z,78.77
2022-09-06T07:54:29.399Z,79.52
2022-09-06T07:56:55.013Z,79.65
2022-09-06T07:59:24.242Z,80.03
2022-09-06T08:01:51.723Z,80.62
2022-09-06T08:04:18.908Z,80.89
2022-09-06T08:09:36.802Z,81.72
2022-09-06T08:12:07.285Z,82.05
2022-09-06T08:14:35.321Z,82.02
2022-09-06T08:17:05.418Z,82.09
2022-09-06T08:19:32.538Z,82.33
2022-09-06T08:21:59.579Z,82.24
2022-09-06T08:24:26.681Z,82.56
2022-09-06T08:26:53.774Z,82.81
2022-09-06T08:29:20.950Z,82.83
2022-09-06T08:31:48.325Z,83.32
2022-09-06T08:34:15.959Z,83.45
2022-09-06T08:36:44.181Z,83.62
2022-09-06T08:39:11.953Z,83.45
2022-09-06T08:42:05.676Z,83.77
2022-09-06T08:47:21.641Z,83.77
2022-09-06T08:50:05.616Z,84.51
2022-09-06T08:53:00.121Z,84.85
2022-09-06T08:55:55.922Z,85.73
2022-09-06T08:59:00.725Z,86.31
2022-09-06T09:02:15.864Z,86.17
2022-09-06T09:04:59.387Z,86.55
2022-09-06T09:08:01.054Z,85.83
2022-09-06T09:11:03.488Z,85.56
2022-09-06T09:13:50.770Z,85.28
2022-09-06T09:16:18.398Z,85.02
2022-09-06T09:18:52.707Z,84.63
2022-09-06T09:21:30.151Z,84.07
2022-09-06T09:24:03.418Z,83.34
2022-09-06T09:26:38.975Z,83.04
2022-09-06T09:29:13.196Z,82.33
2022-09-06T09:31:53.416Z,81.61
2022-09-06T09:34:39.663Z,80.44
2022-09-06T09:40:27.660Z,74.84
2022-09-06T09:43:09.454Z,74.34
2022-09-06T09:45:36.464Z,73.32
2022-09-06T09:48:27.245Z,71.78
2022-09-06T09:50:56.101Z,71.31
2022-09-06T09:53:24.450Z,71.37
2022-09-06T09:55:59.228Z,70.54
2022-09-06T09:58:35.959Z,70.48
2022-09-06T10:01:21.862Z,69.59
2022-09-06T10:09:38.077Z,69.97
2022-09-06T10:12:06.072Z,70.32
2022-09-06T10:14:43.368Z,68.92
2022-09-06T10:17:30.271Z,69.08
2022-09-06T10:20:05.460Z,67.88
2022-09-06T10:23:05.397Z,67.32
2022-09-06T10:26:05.596Z,66.24
2022-09-06T10:28:41.841Z,64.72
2022-09-06T10:31:43.391Z,64.67
2022-09-06T10:34:37.204Z,64.22
2022-09-06T10:37:33.775Z,62.99
2022-09-06T10:40:12.451Z,62.27
2022-09-06T10:42:54.490Z,62.05
2022-09-06T10:45:38.592Z,61.25
2022-09-06T10:48:14.934Z,60.10
2022-09-06T10:50:49.979Z,60.24
2022-09-06T10:53:36.756Z,59.75
2022-09-06T10:56:21.015Z,60.09
2022-09-06T11:02:10.488Z,59.10
2022-09-06T11:07:34.627Z,57.69
2022-09-06T11:10:14.924Z,57.88
2022-09-06T11:13:01.160Z,58.02
2022-09-06T11:15:37.843Z,57.35
2022-09-06T11:18:41.579Z,56.81
2022-09-06T11:21:46.043Z,56.44
2022-09-06T11:24:16.096Z,56.42
2022-09-06T11:27:06.531Z,56.08
2022-09-06T11:29:35.208Z,55.37
2022-09-06T11:32:20.576Z,54.74
2022-09-06T11:34:57.911Z,54.19
2022-09-06T11:37:33.367Z,54.78
2022-09-06T11:40:26.858Z,54.26
2022-09-06T11:42:55.269Z,53.84
2022-09-06T11:45:49.238Z,53.89
2022-09-06T11:48:26.370Z,53.54
2022-09-06T11:51:02.832Z,53.13
2022-09-06T11:53:34.358Z,53.48
2022-09-06T11:56:01.415Z,52.76
2022-09-06T11:58:37.008Z,51.63
2022-09-06T12:01:13.984Z,52.06
2022-09-06T12:04:09.511Z,52.64
2022-09-06T12:07:12.766Z,52.70
2022-09-06T12:09:44.265Z,52.64
2022-09-06T12:12:16.782Z,52.89
2022-09-06T12:14:49.221Z,53.02
2022-09-06T12:17:21.195Z,51.94
2022-09-06T12:20:06.981Z,51.67
2022-09-06T12:22:35.972Z,52.30
2022-09-06T12:25:07.928Z,53.16
2022-09-06T12:27:37.736Z,53.16
2022-09-06T12:30:16.037Z,53.05
2022-09-06T12:32:48.872Z,53.53
2022-09-06T12:38:18.506Z,52.51
2022-09-06T12:40:49.191Z,52.40
2022-09-06T12:43:18.076Z,51.74
2022-09-06T12:45:50.819Z,50.82
2022-09-06T12:48:31.495Z,51.24
2022-09-06T12:51:16.373Z,50.75
2022-09-06T12:53:57.212Z,50.46
2022-09-06T12:56:26.947Z,50.11
2022-09-06T12:59:14.464Z,49.99
2022-09-06T13:01:50.869Z,49.78
2022-09-06T13:04:46.987Z,50.16
2022-09-06T13:07:18.150Z,49.95
2022-09-06T13:09:49.116Z,50.20
2022-09-06T13:12:33.505Z,50.31
2022-09-06T13:15:11.762Z,50.07
2022-09-06T13:17:39.462Z,49.48
2022-09-06T13:20:22.243Z,50.01
2022-09-06T13:22:52.396Z,49.79
2022-09-06T13:25:22.294Z,49.38
2022-09-06T13:27:57.877Z,49.43
2022-09-06T13:30:38.520Z,49.43
2022-09-06T13:33:08.976Z,48.15
2022-09-06T13:35:38.294Z,47.70
2022-09-06T13:38:33.535Z,47.97
2022-09-06T13:41:17.073Z,48.02
2022-09-06T13:43:48.110Z,48.70
2022-09-06T13:46:15.347Z,48.32
2022-09-06T13:48:44.582Z,47.94
2022-09-06T13:51:11.944Z,48.39
2022-09-06T13:53:39.163Z,48.76
2022-09-06T13:56:08.677Z,49.21
2022-09-06T13:58:36.758Z,48.86
2022-09-06T14:01:08.798Z,48.20
2022-09-06T14:03:40.213Z,48.72
2022-09-06T14:06:10.486Z,48.26
2022-09-06T14:09:03.334Z,48.61
2022-09-06T14:11:26.747Z,48.46
2022-09-06T14:13:53.875Z,47.55
2022-09-06T14:16:21.338Z,47.84
2022-09-06T14:18:48.786Z,48.18
2022-09-06T14:21:16.711Z,48.46
2022-09-06T14:23:44.251Z,48.62
2022-09-06T14:26:13.412Z,49.08
2022-09-06T14:28:40.393Z,48.82
2022-09-06T14:31:20.650Z,47.92
2022-09-06T14:33:48.434Z,47.62
2022-09-06T14:36:20.553Z,48.58
2022-09-06T14:38:49.364Z,48.26
2022-09-06T14:41:18.983Z,48.35
2022-09-06T14:43:51.592Z,48.02
2022-09-06T14:46:21.144Z,47.62
2022-09-06T14:48:49.330Z,47.50
2022-09-06T14:51:22.221Z,46.08
2022-09-06T14:53:54.148Z,47.21
2022-09-06T14:56:22.837Z,47.45
2022-09-06T14:58:50.214Z,47.69
2022-09-06T15:01:22.056Z,47.31
2022-09-06T15:03:58.540Z,48.38
2022-09-06T15:06:27.626Z,47.77
2022-09-06T15:08:59.142Z,47.67
2022-09-06T15:11:37.985Z,48.85
2022-09-06T15:14:10.994Z,48.51
2022-09-06T15:16:38.178Z,47.88
2022-09-06T15:19:05.507Z,47.78
2022-09-06T15:21:33.748Z,47.85
2022-09-06T15:24:02.148Z,47.04
2022-09-06T15:26:30.068Z,46.35
2022-09-06T15:28:57.568Z,46.51
2022-09-06T15:31:25.292Z,47.11
2022-09-06T15:33:52.857Z,47.14
2022-09-06T15:36:20.823Z,47.64
2022-09-06T15:38:50.342Z,48.38
2022-09-06T15:41:27.141Z,48.61
2022-09-06T15:43:58.179Z,48.78
2022-09-06T15:46:47.978Z,49.37
2022-09-06T15:49:27.043Z,49.53
2022-09-06T15:51:57.366Z,49.94
2022-09-06T15:54:44.540Z,49.75
2022-09-06T15:57:12.738Z,49.63
2022-09-06T15:59:41.130Z,50.03
2022-09-06T16:02:09.274Z,50.01
2022-09-06T16:04:36.596Z,49.29
2022-09-06T16:07:03.823Z,49.91
2022-09-06T16:09:31.351Z,50.62
2022-09-06T16:11:58.683Z,50.50
2022-09-06T16:14:25.967Z,50.69
2022-09-06T16:16:54.882Z,50.00
2022-09-06T16:19:22.029Z,49.94
2022-09-06T16:21:49.343Z,49.85
2022-09-06T16:24:18.707Z,50.13
2022-09-06T16:26:47.132Z,50.46
2022-09-06T16:29:18.122Z,49.54
2022-09-06T16:31:46.570Z,50.12
2022-09-06T16:34:14.308Z,50.63
2022-09-06T16:36:41.564Z,50.95
2022-09-06T16:39:09.367Z,51.14
2022-09-06T16:41:46.634Z,51.45
2022-09-06T16:44:17.452Z,51.76
2022-09-06T16:46:47.097Z,52.37
2022-09-06T16:49:19.297Z,52.09
2022-09-06T16:51:48.111Z,52.11
2022-09-06T16:54:16.288Z,52.33
2022-09-06T16:56:44.084Z,52.42
2022-09-06T16:59:12.114Z,53.19
2022-09-06T17:01:44.745Z,53.44
2022-09-06T17:04:13.085Z,53.77
2022-09-06T17:06:47.003Z,53.96
2022-09-06T17:09:19.266Z,54.42
2022-09-06T17:11:50.404Z,54.62
2022-09-06T17:14:18.126Z,54.99
2022-09-06T17:17:03.800Z,55.07
2022-09-06T17:19:40.635Z,55.56
2022-09-06T17:22:10.407Z,55.79
2022-09-06T17:24:38.543Z,56.17
2022-09-06T17:27:06.613Z,56.34
2022-09-06T17:29:33.868Z,56.68
2022-09-06T17:32:03.666Z,56.66
2022-09-06T17:34:30.791Z,57.01
2022-09-06T17:36:58.374Z,57.40
2022-09-06T17:39:25.565Z,57.32
2022-09-06T17:41:54.494Z,57.60
2022-09-06T17:44:27.785Z,58.25
2022-09-06T17:47:12.629Z,58.48
2022-09-06T17:49:41.183Z,58.97
2022-09-06T17:52:08.217Z,59.03
2022-09-06T17:54:35.442Z,59.13
2022-09-06T17:57:02.571Z,60.19
2022-09-06T17:59:35.179Z,60.46
2022-09-06T18:02:04.734Z,60.88
2022-09-06T18:04:31.842Z,61.52
2022-09-06T18:06:59.426Z,62.02
2022-09-06T18:09:26.512Z,62.69
2022-09-06T18:11:53.802Z,63.11
2022-09-06T18:14:21.040Z,63.44
2022-09-06T18:16:51.478Z,63.73
2022-09-06T18:19:19.051Z,64.15
2022-09-06T18:21:47.321Z,64.50
2022-09-06T18:24:15.122Z,64.68
2022-09-06T18:26:43.226Z,65.07
2022-09-06T18:29:16.832Z,65.20
2022-09-06T18:31:44.588Z,65.49
2022-09-06T18:34:12.524Z,65.70
2022-09-06T18:36:40.303Z,66.03
2022-09-06T18:39:07.597Z,66.62
2022-09-06T18:41:53.990Z,66.59
2022-09-06T18:44:21.762Z,67.07
2022-09-06T18:46:49.086Z,67.14
2022-09-06T18:49:17.694Z,67.46
2022-09-06T18:51:45.556Z,67.60
2022-09-06T18:54:15.678Z,67.96
2022-09-06T18:56:46.686Z,68.02
2022-09-06T18:59:14.618Z,68.59
2022-09-06T19:01:43.042Z,68.53
2022-09-06T19:04:11.585Z,68.83
2022-09-06T19:06:41.125Z,68.97
2022-09-06T19:09:13.124Z,69.40
2022-09-06T19:11:43.530Z,69.86
2022-09-06T19:14:13.832Z,70.28
2022-09-06T19:16:42.634Z,70.71
2022-09-06T19:19:11.859Z,70.82
2022-09-06T19:21:42.353Z,70.85
2022-09-06T19:24:12.193Z,70.98
2022-09-06T19:26:43.568Z,71.34
2022-09-06T19:29:17.643Z,71.53
2022-09-06T19:31:47.503Z,71.75
2022-09-06T19:34:16.006Z,71.75
2022-09-06T19:36:44.788Z,71.70
2022-09-06T19:39:16.559Z,72.17
2022-09-06T19:41:46.875Z,71.93
2022-09-06T19:44:16.888Z,72.17
2022-09-06T19:46:47.394Z,72.30
2022-09-06T19:49:17.692Z,72.54
2022-09-06T19:51:46.782Z,72.58
2022-09-06T19:54:15.958Z,73.03
2022-09-06T19:56:44.927Z,73.24
2022-09-06T19:59:13.880Z,73.53
2022-09-06T20:01:43.905Z,74.10
2022-09-06T20:04:12.992Z,74.21
2022-09-06T20:06:41.417Z,74.36
2022-09-06T20:09:10.913Z,74.37
2022-09-06T20:11:40.636Z,74.35
2022-09-06T20:14:08.927Z,74.28
2022-09-06T20:16:41.183Z,74.84
2022-09-06T20:19:12.275Z,75.03
2022-09-06T20:21:40.453Z,75.06
2022-09-06T20:24:08.599Z,75.13
2022-09-06T20:26:36.915Z,75.22
2022-09-06T20:29:06.849Z,75.74
2022-09-06T20:31:36.454Z,76.03
2022-09-06T20:34:05.674Z,76.40
2022-09-06T20:36:33.331Z,76.00
2022-09-06T20:39:00.564Z,76.22
2022-09-06T20:41:28.335Z,76.14
2022-09-06T20:43:59.762Z,76.32
2022-09-06T20:46:30.776Z,76.44
2022-09-06T20:49:02.148Z,76.51
2022-09-06T20:51:29.753Z,76.96
2022-09-06T20:54:00.365Z,77.22
2022-09-06T20:56:42.106Z,77.89
2022-09-06T20:59:12.677Z,77.98
2022-09-06T21:01:43.542Z,78.52
2022-09-06T21:04:12.928Z,78.12
2022-09-06T21:06:40.581Z,78.59
2022-09-06T21:09:11.145Z,78.31
2022-09-06T21:11:38.974Z,78.84
2022-09-06T21:14:07.748Z,78.72
2022-09-06T21:16:35.285Z,78.94
2022-09-06T21:19:06.509Z,78.72
2022-09-06T21:21:34.881Z,78.80
2022-09-06T21:24:03.664Z,79.38
2022-09-06T21:26:31.114Z,79.00
2022-09-06T21:28:58.910Z,79.01
2022-09-06T21:31:32.247Z,79.21
2022-09-06T21:34:07.336Z,79.33
2022-09-06T21:36:37.715Z,79.11
2022-09-06T21:39:09.681Z,79.44
2022-09-06T21:41:42.389Z,79.16
2022-09-06T21:44:10.669Z,79.24
2022-09-06T21:46:39.718Z,79.59
2022-09-06T21:49:10.350Z,79.64
2022-09-06T21:51:37.881Z,80.26
2022-09-06T21:54:06.048Z,80.35
2022-09-06T21:56:37.925Z,80.46
2022-09-06T21:59:06.824Z,80.34
2022-09-06T22:01:36.487Z,80.43
2022-09-06T22:04:04.839Z,80.56
2022-09-06T22:06:33.749Z,80.82
2022-09-06T22:09:11.191Z,80.67
2022-09-06T22:11:40.956Z,81.15
2022-09-06T22:14:12.683Z,81.00
2022-09-06T22:16:41.257Z,81.31
2022-09-06T22:19:09.665Z,81.17
2022-09-06T22:21:38.722Z,81.13
2022-09-06T22:24:09.835Z,81.50
2022-09-06T22:26:38.858Z,81.51
2022-09-06T22:29:09.099Z,81.61
2022-09-06T22:31:36.984Z,81.64
2022-09-06T22:34:04.634Z,81.72
2022-09-06T22:36:32.327Z,81.73
2022-09-06T22:38:59.851Z,82.14
2022-09-06T22:41:30.138Z,82.06
2022-09-06T22:43:59.768Z,82.03
2022-09-06T22:46:27.051Z,82.13
2022-09-06T22:48:54.719Z,82.19
2022-09-06T22:51:21.997Z,81.77
2022-09-06T22:53:49.226Z,82.41
2022-09-06T22:56:16.453Z,82.51
2022-09-06T22:58:43.573Z,82.08
2022-09-06T23:01:14.356Z,82.76
2022-09-06T23:03:42.320Z,82.90
2022-09-06T23:06:10.443Z,82.75
2022-09-06T23:08:39.373Z,82.69
2022-09-06T23:11:12.048Z,82.96
2022-09-06T23:13:43.603Z,82.86
2022-09-06T23:16:17.496Z,83.06
2022-09-06T23:18:45.785Z,83.13
2022-09-06T23:21:20.550Z,83.67
2022-09-06T23:23:49.696Z,83.20
2022-09-06T23:26:20.347Z,83.58
2022-09-06T23:28:51.598Z,82.95
2022-09-06T23:31:19.042Z,83.43
2022-09-06T23:33:46.113Z,83.52
2022-09-06T23:36:14.923Z,83.57
2022-09-06T23:38:43.630Z,83.41
2022-09-06T23:41:11.760Z,83.63
2022-09-06T23:43:40.299Z,83.57
2022-09-06T23:46:08.773Z,83.99
2022-09-06T23:48:36.130Z,83.82
2022-09-06T23:51:03.626Z,83.81
2022-09-06T23:53:31.031Z,83.95
2022-09-06T23:55:58.459Z,84.17
2022-09-06T23:58:25.844Z,84.12
